Time;durP1;ratioP1;P1;durP2;ratioP2;P2;SDS_P1;SDS_P2;PMS_P1;PMS_P2;Temp;Humidity;BMP_temperature;BMP_pressure;BME280_temperature;BME280_humidity;BME280_pressure;Samples;Min_cycle;Max_cycle;Signal;HPM_P1;HPM_P2
2022/07/06 00:01:09;;;;;;;;;;;14.50;99.90;;;;;;5013482;28;19909;-81
2022/07/06 00:03:36;;;;;;;;;;;14.50;99.90;;;;;;5013715;28;19918;-80
2022/07/06 00:06:02;;;;;;;;;;;14.50;99.90;;;;;;5013692;28;19917;-80
2022/07/06 00:08:29;;;;;;;;;;;14.60;99.90;;;;;;5013594;28;20350;-79
2022/07/06 00:10:56;;;;;;;;;;;14.60;99.90;;;;;;5013358;28;19909;-79
2022/07/06 00:13:22;;;;;;;;;;;14.60;99.90;;;;;;5013498;28;20283;-79
2022/07/06 00:15:49;;;;;;;;;;;14.60;99.90;;;;;;5013675;28;19996;-79
2022/07/06 00:18:16;;;;;;;;;;;14.60;99.90;;;;;;5013341;28;19910;-79
2022/07/06 00:20:43;;;;;;;;;;;14.60;99.90;;;;;;5013355;28;19910;-79
2022/07/06 00:23:09;;;;;;;;;;;14.60;99.90;;;;;;5013346;28;19909;-79
2022/07/06 00:25:36;;;;;;;;;;;14.50;99.90;;;;;;5013340;28;20367;-79
2022/07/06 00:28:03;;;;;;;;;;;14.50;99.90;;;;;;5013536;28;19964;-80
2022/07/06 00:30:30;;;;;;;;;;;14.60;99.90;;;;;;5013535;28;20337;-80
2022/07/06 00:32:58;;;;;;;;;;;14.60;99.90;;;;;;5013334;28;19910;-80
2022/07/06 00:35:27;;;;;;;;;;;14.60;99.90;;;;;;5013612;28;19910;-80
2022/07/06 00:37:54;;;;;;;;;;;14.60;99.90;;;;;;5013443;28;20371;-81
2022/07/06 00:40:21;;;;;;;;;;;14.60;99.90;;;;;;5013220;28;19910;-80
2022/07/06 00:42:48;;;;;;;;;;;14.50;99.90;;;;;;5013248;28;19920;-80
2022/07/06 00:45:16;;;;;;;;;;;14.60;99.90;;;;;;5015859;28;20252;-79
2022/07/06 00:47:42;;;;;;;;;;;14.60;99.90;;;;;;5016996;28;20385;-77
2022/07/06 00:50:22;;;;;;;;;;;14.50;99.90;;;;;;5016829;28;20382;-77
2022/07/06 00:52:51;;;;;;;;;;;14.60;99.90;;;;;;5016922;28;19972;-76
2022/07/06 00:55:21;;;;;;;;;;;14.60;99.90;;;;;;5016698;28;19909;-76
2022/07/06 00:57:48;;;;;;;;;;;14.60;99.90;;;;;;5016831;28;19916;-76
2022/07/06 01:00:16;;;;;;;;;;;14.60;99.90;;;;;;5016737;28;19936;-76
2022/07/06 01:02:43;;;;;;;;;;;14.70;99.90;;;;;;5016639;28;19916;-76
2022/07/06 01:05:10;;;;;;;;;;;14.70;99.90;;;;;;5016272;28;19922;-77
2022/07/06 01:07:38;;;;;;;;;;;14.60;99.90;;;;;;5016503;28;19999;-77
2022/07/06 01:10:06;;;;;;;;;;;14.60;99.90;;;;;;5016383;28;20320;-76
2022/07/06 01:12:35;;;;;;;;;;;14.60;99.90;;;;;;5016252;28;19910;-77
2022/07/06 01:15:03;;;;;;;;;;;14.60;99.90;;;;;;5016223;28;19916;-76
2022/07/06 01:17:30;;;;;;;;;;;14.60;99.90;;;;;;5016268;28;20008;-77
2022/07/06 01:20:01;;;;;;;;;;;14.70;99.90;;;;;;5016298;28;20267;-77
2022/07/06 01:22:27;;;;;;;;;;;14.70;99.90;;;;;;5016522;28;20010;-77
2022/07/06 01:24:54;;;;;;;;;;;14.70;99.90;;;;;;5015885;28;19918;-78
2022/07/06 01:27:21;;;;;;;;;;;14.80;99.90;;;;;;5016328;28;19914;-77
2022/07/06 01:29:47;;;;;;;;;;;14.80;99.90;;;;;;5016059;28;20004;-76
2022/07/06 01:32:14;;;;;;;;;;;14.70;99.90;;;;;;5016021;28;19909;-76
2022/07/06 01:34:41;;;;;;;;;;;14.70;99.90;;;;;;5016058;28;20375;-76
2022/07/06 01:37:08;;;;;;;;;;;14.70;99.90;;;;;;5015890;28;19914;-76
2022/07/06 01:39:35;;;;;;;;;;;14.70;99.90;;;;;;5015823;28;20261;-78
2022/07/06 01:42:01;;;;;;;;;;;14.70;99.90;;;;;;5015773;28;19909;-78
2022/07/06 01:44:28;;;;;;;;;;;14.70;99.90;;;;;;5015727;28;19921;-78
2022/07/06 01:46:55;;;;;;;;;;;14.70;99.90;;;;;;5015647;28;19972;-78
2022/07/06 01:49:21;;;;;;;;;;;14.70;99.90;;;;;;5015732;28;19996;-78
2022/07/06 01:51:48;;;;;;;;;;;14.70;99.90;;;;;;5015694;28;19910;-79
2022/07/06 01:54:15;;;;;;;;;;;14.80;99.90;;;;;;5015524;28;19909;-79
2022/07/06 01:56:41;;;;;;;;;;;14.80;99.90;;;;;;5015334;28;19944;-78
2022/07/06 01:59:09;;;;;;;;;;;14.70;99.90;;;;;;5014090;28;19909;-79
2022/07/06 02:01:36;;;;;;;;;;;14.70;99.90;;;;;;5015461;28;20348;-78
2022/07/06 02:04:03;;;;;;;;;;;14.70;99.90;;;;;;5015268;28;19922;-77
2022/07/06 02:06:29;;;;;;;;;;;14.70;99.90;;;;;;5015431;28;20261;-79
2022/07/06 02:08:57;;;;;;;;;;;14.70;99.90;;;;;;5015236;28;19909;-79
2022/07/06 02:11:24;;;;;;;;;;;14.70;99.90;;;;;;5030460;28;19940;-78
2022/07/06 02:13:50;;;;;;;;;;;14.60;99.90;;;;;;5015095;28;19909;-77
2022/07/06 02:16:17;;;;;;;;;;;14.60;99.90;;;;;;5015294;28;20152;-77
2022/07/06 02:18:44;;;;;;;;;;;14.50;99.90;;;;;;5015163;28;19909;-77
2022/07/06 02:21:11;;;;;;;;;;;14.60;99.90;;;;;;5014991;28;20001;-76
2022/07/06 02:23:37;;;;;;;;;;;14.50;99.90;;;;;;5030576;28;19913;-76
2022/07/06 02:26:04;;;;;;;;;;;14.60;99.90;;;;;;5014879;28;19925;-77
2022/07/06 02:28:31;;;;;;;;;;;14.70;99.90;;;;;;5014896;28;19914;-77
2022/07/06 02:30:58;;;;;;;;;;;14.70;99.90;;;;;;5014899;28;19917;-78
2022/07/06 02:33:24;;;;;;;;;;;14.70;99.90;;;;;;5015000;28;19909;-77
2022/07/06 02:35:51;;;;;;;;;;;14.70;99.90;;;;;;5015049;28;19971;-77
2022/07/06 02:38:18;;;;;;;;;;;14.70;99.90;;;;;;5014911;28;19913;-77
2022/07/06 02:40:45;;;;;;;;;;;14.60;99.90;;;;;;5014675;28;20315;-77
2022/07/06 02:43:11;;;;;;;;;;;14.70;99.90;;;;;;5014748;28;19952;-77
2022/07/06 02:45:38;;;;;;;;;;;14.70;99.90;;;;;;5014926;28;20359;-77
2022/07/06 02:48:05;;;;;;;;;;;14.60;99.90;;;;;;5015010;28;20289;-77
2022/07/06 02:50:31;;;;;;;;;;;14.60;99.90;;;;;;5014826;28;19910;-77
2022/07/06 02:52:58;;;;;;;;;;;14.60;99.90;;;;;;5014555;28;20284;-76
2022/07/06 02:55:25;;;;;;;;;;;14.70;99.90;;;;;;5014180;28;19910;-77
2022/07/06 02:57:52;;;;;;;;;;;14.70;99.90;;;;;;5014340;28;19910;-77
2022/07/06 03:00:18;;;;;;;;;;;14.60;99.90;;;;;;5014608;28;19917;-78
2022/07/06 03:02:45;;;;;;;;;;;14.60;99.90;;;;;;5014526;28;19913;-78
2022/07/06 03:05:12;;;;;;;;;;;14.70;99.90;;;;;;5014183;28;19929;-78
2022/07/06 03:07:39;;;;;;;;;;;14.70;99.90;;;;;;5013754;28;19909;-77
2022/07/06 03:10:05;;;;;;;;;;;14.70;99.90;;;;;;5014256;28;19909;-77
2022/07/06 03:12:32;;;;;;;;;;;14.70;99.90;;;;;;5014405;28;19910;-78
2022/07/06 03:14:59;;;;;;;;;;;14.70;99.90;;;;;;5014032;28;19909;-79
2022/07/06 03:17:25;;;;;;;;;;;14.70;99.90;;;;;;5014335;28;20007;-78
2022/07/06 03:19:52;;;;;;;;;;;14.70;99.90;;;;;;5014236;28;19909;-78
2022/07/06 03:22:19;;;;;;;;;;;14.70;99.90;;;;;;5014284;28;20004;-79
2022/07/06 03:24:45;;;;;;;;;;;14.60;99.90;;;;;;5014186;28;19917;-79
2022/07/06 03:27:12;;;;;;;;;;;14.70;99.90;;;;;;5014126;28;19916;-80
2022/07/06 03:29:39;;;;;;;;;;;14.70;99.90;;;;;;5014207;28;20387;-79
2022/07/06 03:32:06;;;;;;;;;;;14.70;99.90;;;;;;5013964;28;19910;-80
2022/07/06 03:34:32;;;;;;;;;;;14.70;99.90;;;;;;5014122;28;19963;-79
2022/07/06 03:36:59;;;;;;;;;;;14.70;99.90;;;;;;5013872;28;19909;-80
2022/07/06 03:39:26;;;;;;;;;;;14.70;99.90;;;;;;5013746;28;19914;-79
2022/07/06 03:41:52;;;;;;;;;;;14.70;99.90;;;;;;5013984;28;19996;-78
2022/07/06 03:44:19;;;;;;;;;;;14.60;99.90;;;;;;5013760;28;19910;-80
2022/07/06 03:46:46;;;;;;;;;;;14.70;99.90;;;;;;5028958;28;20399;-80
2022/07/06 03:49:12;;;;;;;;;;;14.70;99.90;;;;;;5013638;28;20352;-79
2022/07/06 03:51:40;;;;;;;;;;;14.70;99.90;;;;;;5013776;28;19932;-80
2022/07/06 03:54:06;;;;;;;;;;;14.70;99.90;;;;;;5013548;28;19917;-80
2022/07/06 03:56:33;;;;;;;;;;;14.70;99.90;;;;;;5013767;28;19910;-78
2022/07/06 03:59:01;;;;;;;;;;;14.70;99.90;;;;;;5013470;28;19909;-78
2022/07/06 04:01:28;;;;;;;;;;;14.70;99.90;;;;;;5013682;28;19936;-79
2022/07/06 04:03:55;;;;;;;;;;;14.70;99.90;;;;;;5013380;28;19926;-77
2022/07/06 04:06:21;;;;;;;;;;;14.70;99.90;;;;;;5013454;28;19922;-77
2022/07/06 04:08:48;;;;;;;;;;;14.60;99.90;;;;;;5013562;28;19909;-78
2022/07/06 04:11:15;;;;;;;;;;;14.60;99.90;;;;;;5013296;28;19916;-79
2022/07/06 04:13:41;;;;;;;;;;;14.60;99.90;;;;;;5013631;28;19914;-79
2022/07/06 04:16:08;;;;;;;;;;;14.60;99.90;;;;;;5013473;28;19972;-78
2022/07/06 04:18:35;;;;;;;;;;;14.60;99.90;;;;;;5013636;28;19910;-78
2022/07/06 04:21:02;;;;;;;;;;;14.60;99.90;;;;;;5017321;28;19964;-78
2022/07/06 04:23:29;;;;;;;;;;;14.60;99.90;;;;;;5017311;28;19909;-79
2022/07/06 04:25:56;;;;;;;;;;;14.60;99.90;;;;;;5017280;28;19922;-78
2022/07/06 04:28:22;;;;;;;;;;;14.60;99.90;;;;;;5017095;28;19909;-80
2022/07/06 04:30:49;;;;;;;;;;;14.60;99.90;;;;;;5017293;28;20290;-79
2022/07/06 04:33:16;;;;;;;;;;;14.60;99.90;;;;;;5017161;28;20251;-79
2022/07/06 04:35:43;;;;;;;;;;;14.60;99.90;;;;;;5017147;28;19917;-80
2022/07/06 04:38:09;;;;;;;;;;;14.60;99.90;;;;;;5017233;28;19910;-79
2022/07/06 04:40:36;;;;;;;;;;;14.70;99.90;;;;;;5016835;28;19909;-79
2022/07/06 04:43:03;;;;;;;;;;;14.70;99.90;;;;;;5016746;28;19916;-79
2022/07/06 04:45:30;;;;;;;;;;;14.70;99.90;;;;;;5016812;28;20051;-78
2022/07/06 04:47:56;;;;;;;;;;;14.80;99.90;;;;;;5016794;28;19910;-79
2022/07/06 04:50:23;;;;;;;;;;;14.80;99.90;;;;;;5016933;28;19916;-80
2022/07/06 04:52:50;;;;;;;;;;;14.80;99.90;;;;;;5016857;28;19916;-79
2022/07/06 04:55:16;;;;;;;;;;;14.80;99.90;;;;;;5016623;28;19915;-80
2022/07/06 04:57:43;;;;;;;;;;;14.80;99.90;;;;;;5016711;28;20021;-79
2022/07/06 05:00:10;;;;;;;;;;;14.70;99.90;;;;;;5016681;28;19910;-80
2022/07/06 05:02:37;;;;;;;;;;;14.70;99.90;;;;;;5016477;28;19921;-79
2022/07/06 05:05:04;;;;;;;;;;;14.70;99.90;;;;;;5016194;28;20012;-80
2022/07/06 05:07:33;;;;;;;;;;;14.70;99.90;;;;;;5016555;28;19972;-80
2022/07/06 05:10:00;;;;;;;;;;;14.60;99.90;;;;;;5016442;28;20398;-80
2022/07/06 05:12:26;;;;;;;;;;;14.60;99.90;;;;;;5016496;28;19909;-79
2022/07/06 05:14:53;;;;;;;;;;;14.60;99.90;;;;;;5016216;28;19909;-80
2022/07/06 05:17:20;;;;;;;;;;;14.60;99.90;;;;;;5016551;28;19917;-78
2022/07/06 05:19:46;;;;;;;;;;;14.60;99.90;;;;;;5016422;28;19913;-79
2022/07/06 05:22:13;;;;;;;;;;;14.60;99.90;;;;;;5016418;28;19910;-78
2022/07/06 05:24:40;;;;;;;;;;;14.60;99.90;;;;;;5016044;28;20379;-78
2022/07/06 05:27:06;;;;;;;;;;;14.60;99.90;;;;;;5016170;28;19910;-78
2022/07/06 05:29:33;;;;;;;;;;;14.60;99.90;;;;;;5015545;28;19960;-79
2022/07/06 05:32:00;;;;;;;;;;;14.60;99.90;;;;;;5015897;28;20378;-78
2022/07/06 05:34:26;;;;;;;;;;;14.60;99.90;;;;;;5016173;28;19916;-79
2022/07/06 05:36:53;;;;;;;;;;;14.50;99.90;;;;;;5015861;28;19917;-79
2022/07/06 05:39:22;;;;;;;;;;;14.50;99.90;;;;;;5015830;28;19932;-80
2022/07/06 05:41:49;;;;;;;;;;;14.50;99.90;;;;;;5015895;28;19910;-78
2022/07/06 05:44:16;;;;;;;;;;;14.50;99.90;;;;;;5015622;28;20292;-78
2022/07/06 05:46:42;;;;;;;;;;;14.60;99.90;;;;;;5015813;28;19918;-79
2022/07/06 05:51:53;;;;;;;;;;;14.50;99.90;;;;;;5015684;28;19917;-79
2022/07/06 05:54:20;;;;;;;;;;;14.50;99.90;;;;;;5015218;28;19910;-80
2022/07/06 05:56:47;;;;;;;;;;;14.60;99.90;;;;;;5015379;28;20364;-79
2022/07/06 05:59:14;;;;;;;;;;;14.60;99.90;;;;;;5030520;28;20260;-78
2022/07/06 06:01:40;;;;;;;;;;;14.60;99.90;;;;;;5015525;28;19956;-78
2022/07/06 06:04:07;;;;;;;;;;;14.60;99.90;;;;;;5015354;28;19932;-79
2022/07/06 06:06:34;;;;;;;;;;;14.60;99.90;;;;;;5015465;28;20431;-78
2022/07/06 06:09:00;;;;;;;;;;;14.60;99.90;;;;;;5015027;28;19948;-79
2022/07/06 06:11:27;;;;;;;;;;;14.60;99.90;;;;;;5015280;28;19913;-78
2022/07/06 06:13:54;;;;;;;;;;;14.60;99.90;;;;;;5015229;28;19909;-78
2022/07/06 06:16:20;;;;;;;;;;;14.60;99.90;;;;;;5015354;28;19933;-78
2022/07/06 06:18:47;;;;;;;;;;;14.60;99.90;;;;;;5015133;28;19920;-79
2022/07/06 06:21:14;;;;;;;;;;;14.60;99.90;;;;;;5014991;28;19963;-78
2022/07/06 06:23:41;;;;;;;;;;;14.60;99.90;;;;;;5014862;28;19963;-78
2022/07/06 06:26:07;;;;;;;;;;;14.60;99.90;;;;;;5014952;28;19928;-79
2022/07/06 06:28:34;;;;;;;;;;;14.60;99.90;;;;;;5014883;28;20375;-79
2022/07/06 06:31:01;;;;;;;;;;;14.60;99.90;;;;;;5014804;28;19910;-79
2022/07/06 06:33:27;;;;;;;;;;;14.60;99.90;;;;;;5014991;28;19944;-79
2022/07/06 06:35:54;;;;;;;;;;;14.60;99.90;;;;;;5015088;28;20344;-79
2022/07/06 06:38:22;;;;;;;;;;;14.60;99.90;;;;;;5014595;28;19916;-79
2022/07/06 06:40:49;;;;;;;;;;;14.60;99.90;;;;;;5014771;28;19945;-79
2022/07/06 06:43:15;;;;;;;;;;;14.50;99.90;;;;;;5014135;28;19995;-79
2022/07/06 06:45:42;;;;;;;;;;;14.50;99.90;;;;;;5014612;28;19963;-78
2022/07/06 06:48:09;;;;;;;;;;;14.40;99.90;;;;;;5015157;28;19909;-79
2022/07/06 06:50:39;;;;;;;;;;;14.40;99.90;;;;;;5014181;28;19915;-80
2022/07/06 06:53:09;;;;;;;;;;;14.30;99.90;;;;;;5012395;28;19918;-80
2022/07/06 06:55:39;;;;;;;;;;;14.30;99.90;;;;;;5012443;28;20374;-80
2022/07/06 06:58:09;;;;;;;;;;;14.20;99.90;;;;;;5013718;28;20363;-80
2022/07/06 07:00:38;;;;;;;;;;;14.20;99.90;;;;;;5013186;28;20287;-81
2022/07/06 07:03:05;;;;;;;;;;;14.20;99.90;;;;;;5011380;28;20001;-80
2022/07/06 07:05:32;;;;;;;;;;;14.20;99.90;;;;;;5011881;28;19932;-79
2022/07/06 07:08:05;;;;;;;;;;;14.20;99.90;;;;;;5011346;28;21723;-80
2022/07/06 07:10:32;;;;;;;;;;;14.30;99.90;;;;;;5012246;28;19914;-80
2022/07/06 07:12:59;;;;;;;;;;;14.40;99.90;;;;;;5011939;28;19916;-81
2022/07/06 07:15:26;;;;;;;;;;;14.40;99.90;;;;;;5012114;28;19920;-81
2022/07/06 07:17:53;;;;;;;;;;;14.40;99.90;;;;;;5011514;28;19919;-81
2022/07/06 07:20:19;;;;;;;;;;;14.40;99.90;;;;;;5011786;28;19914;-81
2022/07/06 07:22:46;;;;;;;;;;;14.40;99.90;;;;;;5011963;28;19923;-81
2022/07/06 07:25:13;;;;;;;;;;;14.40;99.90;;;;;;5011473;28;19920;-81
2022/07/06 07:27:40;;;;;;;;;;;14.30;99.90;;;;;;5026985;28;20387;-81
2022/07/06 07:30:10;;;;;;;;;;;14.30;99.90;;;;;;5011727;28;19921;-81
2022/07/06 07:32:43;;;;;;;;;;;14.30;99.90;;;;;;5011443;28;19910;-80
2022/07/06 07:35:10;;;;;;;;;;;14.20;99.90;;;;;;5011764;28;20025;-80
2022/07/06 07:37:39;;;;;;;;;;;14.20;99.90;;;;;;5011709;28;20004;-81
2022/07/06 07:40:09;;;;;;;;;;;14.20;99.90;;;;;;5011445;28;19909;-80
2022/07/06 07:42:40;;;;;;;;;;;14.20;99.90;;;;;;5011500;28;20287;-82
2022/07/06 07:45:07;;;;;;;;;;;14.10;99.90;;;;;;5010859;28;19929;-80
2022/07/06 07:47:34;;;;;;;;;;;14.10;99.90;;;;;;5011495;28;20253;-80
2022/07/06 07:50:04;;;;;;;;;;;14.10;99.90;;;;;;5011775;28;20403;-81
2022/07/06 07:52:31;;;;;;;;;;;14.10;99.90;;;;;;5011190;28;19963;-80
2022/07/06 07:54:58;;;;;;;;;;;14.00;99.90;;;;;;5011023;28;19945;-79
2022/07/06 07:57:24;;;;;;;;;;;13.90;99.90;;;;;;5011063;28;19916;-81
2022/07/06 07:59:51;;;;;;;;;;;14.00;99.90;;;;;;5027000;28;20264;-82
2022/07/06 08:02:21;;;;;;;;;;;13.90;99.90;;;;;;5011537;28;20310;-80
2022/07/06 08:04:51;;;;;;;;;;;14.00;99.90;;;;;;5011232;28;19929;-80
2022/07/06 08:07:18;;;;;;;;;;;14.00;99.90;;;;;;5011225;28;19921;-80
2022/07/06 08:09:44;;;;;;;;;;;14.10;99.90;;;;;;5011034;28;19914;-80
2022/07/06 08:12:11;;;;;;;;;;;14.10;99.90;;;;;;5011422;28;20278;-80
2022/07/06 08:14:38;;;;;;;;;;;14.10;99.90;;;;;;5011609;28;19914;-80
2022/07/06 08:17:05;;;;;;;;;;;14.10;99.90;;;;;;5011317;28;20253;-79
2022/07/06 08:26:04;;;;;;;;;;;14.10;99.90;;;;;;4938276;28;19918;-82
2022/07/06 08:28:31;;;;;;;;;;;14.10;99.90;;;;;;5011474;28;19914;-82
2022/07/06 08:30:58;;;;;;;;;;;14.10;99.90;;;;;;5011013;28;20380;-81
2022/07/06 08:33:25;;;;;;;;;;;14.10;99.90;;;;;;5011282;28;19909;-82
2022/07/06 08:35:51;;;;;;;;;;;14.10;99.90;;;;;;5009718;28;19910;-82
2022/07/06 08:38:18;;;;;;;;;;;14.10;99.90;;;;;;5010769;28;20274;-81
2022/07/06 08:40:47;;;;;;;;;;;14.20;99.90;;;;;;5011146;28;20011;-84
2022/07/06 08:43:14;;;;;;;;;;;14.20;99.90;;;;;;5011011;28;20348;-82
2022/07/06 08:45:44;;;;;;;;;;;14.20;99.90;;;;;;5011235;28;19941;-82
2022/07/06 08:48:11;;;;;;;;;;;14.30;99.90;;;;;;5011016;28;19909;-82
2022/07/06 08:50:38;;;;;;;;;;;14.30;99.90;;;;;;5011540;28;19914;-81
2022/07/06 08:53:05;;;;;;;;;;;14.20;99.90;;;;;;5010884;28;19976;-83
2022/07/06 08:55:33;;;;;;;;;;;14.30;99.90;;;;;;5011122;28;19910;-82
2022/07/06 08:57:59;;;;;;;;;;;14.30;99.90;;;;;;5011128;28;19932;-84
2022/07/06 09:00:26;;;;;;;;;;;14.30;99.90;;;;;;5010886;28;19995;-82
2022/07/06 09:02:56;;;;;;;;;;;14.20;99.90;;;;;;5010371;28;19909;-82
2022/07/06 09:05:23;;;;;;;;;;;14.20;99.90;;;;;;5013252;28;20343;-82
2022/07/06 09:07:51;;;;;;;;;;;14.20;99.90;;;;;;5016593;28;19918;-83
2022/07/06 09:10:22;;;;;;;;;;;14.20;99.90;;;;;;5016427;28;19913;-84
2022/07/06 09:12:49;;;;;;;;;;;14.10;99.90;;;;;;5016493;28;19932;-81
2022/07/06 09:15:16;;;;;;;;;;;14.20;99.90;;;;;;5031657;28;20323;-82
2022/07/06 09:17:43;;;;;;;;;;;14.20;99.90;;;;;;5016401;28;19964;-81
2022/07/06 09:20:14;;;;;;;;;;;14.20;99.90;;;;;;5012574;28;19913;-82
2022/07/06 09:22:41;;;;;;;;;;;14.20;99.90;;;;;;5016574;28;20312;-83
2022/07/06 09:25:09;;;;;;;;;;;14.30;99.90;;;;;;5015925;28;19928;-82
2022/07/06 09:27:40;;;;;;;;;;;14.20;99.90;;;;;;5016248;28;19913;-81
2022/07/06 09:30:07;;;;;;;;;;;14.30;99.90;;;;;;5031215;28;19910;-82
2022/07/06 09:32:53;;;;;;;;;;;14.30;99.90;;;;;;5015991;28;20391;-81
2022/07/06 09:35:28;;;;;;;;;;;14.30;99.90;;;;;;5015883;28;19909;-81
2022/07/06 09:38:04;;;;;;;;;;;14.30;99.90;;;;;;5015663;28;19909;-81
2022/07/06 09:40:32;;;;;;;;;;;14.20;99.90;;;;;;5015894;28;19963;-82
2022/07/06 09:43:08;;;;;;;;;;;14.30;99.90;;;;;;5015583;28;19917;-81
2022/07/06 09:45:38;;;;;;;;;;;14.30;99.90;;;;;;5016020;28;20351;-82
2022/07/06 09:48:18;;;;;;;;;;;14.30;99.90;;;;;;5016087;28;19980;-81
2022/07/06 09:50:46;;;;;;;;;;;14.30;99.90;;;;;;5014714;28;20410;-82
2022/07/06 09:53:13;;;;;;;;;;;14.40;99.90;;;;;;5015383;28;19909;-81
2022/07/06 09:55:50;;;;;;;;;;;14.40;99.90;;;;;;5015490;28;19910;-82
2022/07/06 09:58:17;;;;;;;;;;;14.40;99.90;;;;;;5015342;28;19956;-79
2022/07/06 10:00:44;;;;;;;;;;;14.40;99.90;;;;;;5015474;28;19909;-81
2022/07/06 10:03:12;;;;;;;;;;;14.40;99.90;;;;;;5014777;28;19921;-82
2022/07/06 10:05:39;;;;;;;;;;;14.40;99.90;;;;;;5015124;28;20019;-82
2022/07/06 10:08:09;;;;;;;;;;;14.40;99.90;;;;;;5015103;28;19917;-83
2022/07/06 10:10:36;;;;;;;;;;;14.40;99.90;;;;;;5015258;28;20003;-80
2022/07/06 10:13:05;;;;;;;;;;;14.40;99.90;;;;;;5014849;28;20329;-82
2022/07/06 10:15:33;;;;;;;;;;;14.40;99.90;;;;;;5015194;28;20068;-81
2022/07/06 10:18:00;;;;;;;;;;;14.50;99.90;;;;;;5014525;28;20357;-80
2022/07/06 10:20:31;;;;;;;;;;;14.50;99.90;;;;;;5014953;28;19920;-80
2022/07/06 10:23:01;;;;;;;;;;;14.50;99.90;;;;;;5014682;28;20015;-81
2022/07/06 10:25:28;;;;;;;;;;;14.50;99.90;;;;;;5015042;28;19921;-80
2022/07/06 10:27:55;;;;;;;;;;;14.60;99.90;;;;;;5014943;28;19909;-80
2022/07/06 10:30:23;;;;;;;;;;;14.60;99.90;;;;;;5014994;28;19909;-79
2022/07/06 10:32:51;;;;;;;;;;;14.60;99.90;;;;;;5014204;28;19910;-81
2022/07/06 10:35:20;;;;;;;;;;;14.60;99.90;;;;;;5014951;28;19921;-80
2022/07/06 10:38:03;;;;;;;;;;;14.60;99.90;;;;;;5014760;28;20260;-79
2022/07/06 10:43:21;;;;;;;;;;;14.60;99.90;;;;;;5014723;28;19916;-78
2022/07/06 10:45:48;;;;;;;;;;;14.70;99.90;;;;;;5013376;28;20033;-80
2022/07/06 10:48:17;;;;;;;;;;;14.70;99.90;;;;;;5014809;28;20241;-80
2022/07/06 10:50:51;;;;;;;;;;;14.70;99.90;;;;;;5014454;28;19909;-79
2022/07/06 10:53:28;;;;;;;;;;;14.70;99.90;;;;;;5014218;28;19913;-80
2022/07/06 10:55:57;;;;;;;;;;;14.70;99.90;;;;;;5014319;28;19909;-79
2022/07/06 10:58:42;;;;;;;;;;;14.60;99.90;;;;;;5014474;28;19910;-80
2022/07/06 11:01:10;;;;;;;;;;;14.70;99.90;;;;;;5014104;28;20004;-80
2022/07/06 11:03:44;;;;;;;;;;;14.60;99.90;;;;;;5014133;28;19914;-80
2022/07/06 11:06:12;;;;;;;;;;;14.60;99.90;;;;;;5014316;28;19918;-80
2022/07/06 11:08:48;;;;;;;;;;;14.60;99.90;;;;;;5013996;28;19909;-80
2022/07/06 11:11:25;;;;;;;;;;;14.60;99.90;;;;;;5013960;28;19936;-79
2022/07/06 11:14:02;;;;;;;;;;;14.70;99.90;;;;;;5014308;28;19932;-81
2022/07/06 11:16:33;;;;;;;;;;;14.70;99.90;;;;;;5014294;28;19910;-81
2022/07/06 11:19:10;;;;;;;;;;;14.70;99.90;;;;;;5014043;28;19909;-80
2022/07/06 11:21:38;;;;;;;;;;;14.70;99.90;;;;;;5014018;28;19910;-79
2022/07/06 11:24:06;;;;;;;;;;;14.70;99.90;;;;;;5014033;28;19917;-80
2022/07/06 11:26:35;;;;;;;;;;;14.70;99.90;;;;;;5014040;28;19917;-78
2022/07/06 11:29:06;;;;;;;;;;;14.70;99.90;;;;;;5013362;28;19910;-78
2022/07/06 11:31:35;;;;;;;;;;;14.70;99.90;;;;;;5013962;28;19909;-79
2022/07/06 11:34:02;;;;;;;;;;;14.70;99.90;;;;;;5013918;28;20340;-80
2022/07/06 11:36:29;;;;;;;;;;;14.70;99.90;;;;;;5013695;28;20283;-80
2022/07/06 11:38:56;;;;;;;;;;;14.70;99.90;;;;;;5013768;28;19960;-79
2022/07/06 11:41:22;;;;;;;;;;;14.70;99.90;;;;;;5013710;28;19916;-78
2022/07/06 11:43:51;;;;;;;;;;;14.70;99.90;;;;;;5013933;28;20351;-79
2022/07/06 11:46:19;;;;;;;;;;;14.70;99.90;;;;;;5013770;28;19921;-79
2022/07/06 11:48:47;;;;;;;;;;;14.70;99.90;;;;;;5013804;28;19921;-78
2022/07/06 11:51:14;;;;;;;;;;;14.70;99.90;;;;;;5013665;28;19910;-79
2022/07/06 11:53:47;;;;;;;;;;;14.70;99.90;;;;;;5013670;28;19910;-80
2022/07/06 11:56:21;;;;;;;;;;;14.70;99.90;;;;;;5013805;28;19941;-79
2022/07/06 11:58:51;;;;;;;;;;;14.70;99.90;;;;;;5013865;28;20017;-79
2022/07/06 12:01:18;;;;;;;;;;;14.70;99.90;;;;;;5012385;28;20275;-80
2022/07/06 12:03:46;;;;;;;;;;;14.70;99.90;;;;;;5012499;28;19924;-79
2022/07/06 12:06:14;;;;;;;;;;;14.70;99.90;;;;;;4994424;28;19925;-78
2022/07/06 12:08:44;;;;;;;;;;;14.70;99.90;;;;;;4993442;28;20195;-77
2022/07/06 12:11:11;;;;;;;;;;;14.70;99.90;;;;;;4993156;28;19996;-78
2022/07/06 12:13:42;;;;;;;;;;;14.70;99.90;;;;;;4992441;28;19921;-79
2022/07/06 12:16:18;;;;;;;;;;;14.70;99.90;;;;;;4992389;28;19910;-79
2022/07/06 12:18:46;;;;;;;;;;;14.70;99.90;;;;;;4992372;28;19910;-80
2022/07/06 12:21:21;;;;;;;;;;;14.70;99.90;;;;;;4992075;28;19910;-79
2022/07/06 12:23:52;;;;;;;;;;;14.70;99.90;;;;;;4991801;28;20016;-80
2022/07/06 12:26:28;;;;;;;;;;;14.70;99.90;;;;;;4992178;28;19940;-80
2022/07/06 12:29:13;;;;;;;;;;;14.70;99.90;;;;;;4992418;28;20294;-79
2022/07/06 12:31:41;;;;;;;;;;;14.70;99.90;;;;;;4992573;28;19910;-80
2022/07/06 12:34:18;;;;;;;;;;;14.70;99.90;;;;;;4992439;28;19910;-79
2022/07/06 12:36:49;;;;;;;;;;;14.60;99.90;;;;;;4992087;28;19988;-80
2022/07/06 12:39:18;;;;;;;;;;;14.60;99.90;;;;;;4991989;28;19981;-80
2022/07/06 12:41:56;;;;;;;;;;;14.50;99.90;;;;;;4996110;28;19909;-79
2022/07/06 12:44:24;;;;;;;;;;;14.50;99.90;;;;;;4996074;28;19910;-80
2022/07/06 12:47:01;;;;;;;;;;;14.40;99.90;;;;;;4996078;28;19969;-80
2022/07/06 12:49:28;;;;;;;;;;;14.30;99.90;;;;;;4995966;28;19910;-79
2022/07/06 12:52:04;;;;;;;;;;;14.30;99.90;;;;;;4995830;28;19910;-80
2022/07/06 12:54:33;;;;;;;;;;;14.30;99.90;;;;;;4995328;28;19916;-79
2022/07/06 12:57:07;;;;;;;;;;;14.30;99.90;;;;;;4995615;28;19917;-82
2022/07/06 12:59:35;;;;;;;;;;;14.20;99.90;;;;;;4995681;28;19909;-80
2022/07/06 13:02:02;;;;;;;;;;;14.20;99.90;;;;;;4995904;28;19993;-79
2022/07/06 13:04:31;;;;;;;;;;;14.10;99.90;;;;;;4995413;28;20431;-79
2022/07/06 13:06:59;;;;;;;;;;;14.10;99.90;;;;;;4995277;28;19918;-79
2022/07/06 13:09:26;;;;;;;;;;;14.10;99.90;;;;;;4995114;28;19917;-79
2022/07/06 13:11:52;;;;;;;;;;;14.00;99.90;;;;;;4995635;28;20296;-79
2022/07/06 13:14:19;;;;;;;;;;;14.00;99.90;;;;;;4995377;28;19917;-79
2022/07/06 13:16:46;;;;;;;;;;;14.00;99.90;;;;;;4995495;28;20400;-80
2022/07/06 13:19:13;;;;;;;;;;;14.00;99.90;;;;;;4995195;28;20000;-80
2022/07/06 13:21:40;;;;;;;;;;;14.00;99.90;;;;;;4995309;28;19914;-79
2022/07/06 13:24:07;;;;;;;;;;;14.00;99.90;;;;;;4994828;28;19910;-79
2022/07/06 13:26:34;;;;;;;;;;;14.00;99.90;;;;;;4995134;28;19926;-78
2022/07/06 13:29:01;;;;;;;;;;;13.90;99.90;;;;;;4994946;28;19914;-78
2022/07/06 13:31:28;;;;;;;;;;;13.90;99.90;;;;;;4994986;28;19993;-78
2022/07/06 13:33:55;;;;;;;;;;;14.00;99.90;;;;;;4995274;28;19916;-79
2022/07/06 13:36:22;;;;;;;;;;;13.90;99.90;;;;;;4995066;28;20370;-78
2022/07/06 13:38:48;;;;;;;;;;;13.90;99.90;;;;;;4994935;28;20317;-79
2022/07/06 13:41:15;;;;;;;;;;;13.90;99.90;;;;;;4994759;28;19917;-78
2022/07/06 13:43:42;;;;;;;;;;;13.90;99.90;;;;;;4994981;28;19909;-79
2022/07/06 13:46:10;;;;;;;;;;;13.90;99.90;;;;;;4994922;28;19918;-78
2022/07/06 13:48:37;;;;;;;;;;;13.90;99.90;;;;;;4994983;28;19910;-79
2022/07/06 13:51:04;;;;;;;;;;;13.90;99.90;;;;;;4994211;28;19910;-79
2022/07/06 13:53:31;;;;;;;;;;;13.90;99.90;;;;;;4995035;28;20058;-79
2022/07/06 13:55:58;;;;;;;;;;;13.90;99.90;;;;;;4994896;28;19946;-79
2022/07/06 13:58:25;;;;;;;;;;;13.90;99.90;;;;;;4994850;28;19921;-78
2022/07/06 14:00:52;;;;;;;;;;;13.90;99.90;;;;;;4994669;28;20380;-79
2022/07/06 14:03:18;;;;;;;;;;;13.90;99.90;;;;;;4994707;28;19910;-78
2022/07/06 14:05:45;;;;;;;;;;;13.90;99.90;;;;;;4994488;28;19918;-77
2022/07/06 14:08:12;;;;;;;;;;;13.90;99.90;;;;;;5010527;28;19918;-80
2022/07/06 14:10:39;;;;;;;;;;;13.90;99.90;;;;;;5013802;28;19914;-78
2022/07/06 14:13:05;;;;;;;;;;;13.90;99.90;;;;;;5013768;28;19971;-79
2022/07/06 14:15:33;;;;;;;;;;;13.80;99.90;;;;;;5014002;28;19948;-80
2022/07/06 14:18:00;;;;;;;;;;;13.80;99.90;;;;;;5013888;28;19949;-79
2022/07/06 14:20:26;;;;;;;;;;;13.80;99.90;;;;;;5013828;28;20000;-79
2022/07/06 14:22:53;;;;;;;;;;;13.80;99.90;;;;;;4995561;28;20307;-80
2022/07/06 14:25:20;;;;;;;;;;;13.80;99.90;;;;;;5013619;28;19925;-79
2022/07/06 14:27:46;;;;;;;;;;;13.80;99.90;;;;;;5013644;28;19914;-80
2022/07/06 14:30:13;;;;;;;;;;;13.80;99.90;;;;;;5013664;28;20385;-79
2022/07/06 14:32:40;;;;;;;;;;;13.80;99.90;;;;;;5013706;28;19910;-80